• Join FlightAware (Why Join?)
  • Login
  • US Flag 
10:18AM EDT


 

Airport Tracker/Info


-or-


 

Live Flight TrackerFlight Track Log ✈ LXJ342 ✈ 01-Jul-2013 ✈ KPIA - KAIZ

Flight Track Log - Related Links

Times and Time Zones

All times are in EDT time to prevent confusion due to time zone crossing. See the LXJ342 flight status page for this flight to view local times or setup timezone preferences in your user account.

Time Position Orientation Groundspeed Altitude Reporting Facility
EDT Latitude Longitude Course Direction KTS MPH feet Rate Location/Type
04:14PM 40.6908 -89.6564 28° Northeast 206 237 2,600  Level Chicago Center
04:15PM 40.7481 -89.6161 28° Northeast 240 276 5,600 2,760 Climbing Chicago Center
04:16PM 40.7683 -89.7042 287° West 292 336 8,400 3,000 Climbing Chicago Center
04:17PM 40.7131 -89.7994 233° Southwest 316 364 11,900 3,180 Climbing Chicago Center
04:18PM 40.6378 -89.8817 220° Southwest 338 389 15,000 2,820 Climbing Chicago Center
04:19PM 40.5678 -89.9578 220° Southwest 340 391 17,800 2,400 Climbing Chicago Center
04:20PM 40.4803 -90.0550 220° Southwest 345 397 20,000 1,020 Climbing Chicago Center
04:21PM 40.4050 -90.1369 220° Southwest 405 466 20,000  Level Chicago Center
04:22PM 40.2883 -90.2642 220° Southwest 454 522 20,000  Level Chicago Center
04:23PM 40.1914 -90.3689 220° Southwest 454 522 20,000  Level Chicago Center
04:24PM 40.0969 -90.4692 219° Southwest 436 502 20,000  Level Chicago Center
04:25PM 40.0033 -90.5692 219° Southwest 436 502 20,000  Level Chicago Center
04:26PM 39.9100 -90.6728 220° Southwest 439 505 20,000  Level Chicago Center
04:27PM 39.8183 -90.7700 219° Southwest 431 496 20,000  Level Chicago Center
04:28PM 39.7072 -90.8872 219° Southwest 431 496 20,000  Level Chicago Center
04:30PM 39.5975 -91.0056 220° Southwest 431 496 20,000  Level Kansas City Center
04:31PM 39.5044 -91.1028 219° Southwest 432 497 20,000  Level Kansas City Center
04:32PM 39.4119 -91.2008 219° Southwest 432 497 20,000  Level Kansas City Center
04:33PM 39.3186 -91.2986 219° Southwest 433 498 20,000  Level Kansas City Center
04:34PM 39.2283 -91.3944 219° Southwest 430 495 20,000 -420 Level Kansas City Center
04:35PM 39.1167 -91.5097 219° Southwest 430 495 19,200 -900 Descending Kansas City Center
04:36PM 39.0233 -91.6089 220° Southwest 435 501 18,200 -960 Descending Kansas City Center
04:37PM 38.9292 -91.7050 218° Southwest 439 505 17,200 -1,260 Descending Kansas City Center
04:38PM 38.8386 -91.7997 219° Southwest 427 491 15,600 -1,500 Descending Kansas City Center
04:39PM 38.7539 -91.8861 219° Southwest 402 463 14,200 -1,560 Descending Kansas City Center
04:40PM 38.6556 -91.9853 218° Southwest 386 444 12,400 -1,920 Descending Kansas City Center
04:41PM 38.5781 -92.0628 218° Southwest 369 425 10,300 -2,160 Descending Kansas City Center
04:42PM 38.5250 -92.1531 233° Southwest 339 390 8,000 -2,280 Descending Kansas City Center
04:43PM 38.4561 -92.2247 219° Southwest 326 375 5,600 -1,980 Descending Kansas City Center
04:44PM 38.3817 -92.2811 211° Southwest 318 366 4,000 -1,260 Descending Kansas City Center
04:45PM 38.3128 -92.3356 212° Southwest 305 351 3,000 -540 Descending Kansas City Center
04:46PM 38.2444 -92.4014 217° Southwest 274 315 3,000  Level Kansas City Center
04:47PM 38.1989 -92.4536 222° Southwest 244 281 3,000  Level Kansas City Center
04:48PM 38.1575 -92.5064 225° Southwest 225 259 3,000 -360 Level Kansas City Center
04:49PM 38.1103 -92.5514 217° Southwest 219 252 2,300 -600 Descending Kansas City Center
04:50PM 38.0781 -92.5936 226° Southwest 200 230 1,800 -660 Descending Kansas City Center
04:51PM 38.0858 -92.5581 74° East 159 183 1,000 -780 Descending Kansas City Center